Time;durP1;ratioP1;P1;durP2;ratioP2;P2;SDS_P1;SDS_P2;PMS_P1;PMS_P2;Temp;Humidity;BMP_temperature;BMP_pressure;BME280_temperature;BME280_humidity;BME280_pressure;Samples;Min_cycle;Max_cycle;Signal;HPM_P1;HPM_P2
2021/09/21 00:00:12;;;;;;;5.07;4.10;;;;;;;15.16;55.78;101300.44;5087173;28;20052;-79
2021/09/21 00:02:40;;;;;;;5.15;3.35;;;;;;;15.13;55.10;101307.53;5059467;28;20056;-80
2021/09/21 00:05:11;;;;;;;4.05;3.40;;;;;;;15.13;56.06;101303.91;5091254;28;20048;-80
2021/09/21 00:07:40;;;;;;;5.05;3.42;;;;;;;15.10;56.32;101301.72;5089132;28;20048;-80
2021/09/21 00:10:09;;;;;;;5.43;3.65;;;;;;;15.10;55.76;101287.69;5087075;28;20048;-79
2021/09/21 00:12:37;;;;;;;6.18;3.97;;;;;;;15.04;56.42;101291.84;5051083;28;20060;-80
2021/09/21 00:15:08;;;;;;;5.15;3.85;;;;;;;14.99;56.16;101299.25;5068985;28;20053;-80
2021/09/21 00:17:35;;;;;;;6.18;3.97;;;;;;;14.98;56.45;101293.94;5071663;28;20067;-80
2021/09/21 00:20:04;;;;;;;4.88;3.70;;;;;;;14.90;56.40;101295.56;5080666;28;20049;-80
2021/09/21 00:22:32;;;;;;;5.65;4.18;;;;;;;14.84;56.40;101302.47;5088503;28;20056;-80
2021/09/21 00:25:01;;;;;;;6.38;3.90;;;;;;;14.74;57.11;101308.34;5086907;28;20139;-80
2021/09/21 00:27:28;;;;;;;5.00;3.60;;;;;;;14.64;57.14;101319.88;5090026;28;20067;-79
2021/09/21 00:29:56;;;;;;;5.47;3.72;;;;;;;14.58;57.91;101321.97;5094790;28;20052;-80
2021/09/21 00:32:26;;;;;;;7.82;3.97;;;;;;;14.54;57.63;101318.94;5091540;28;20052;-80
2021/09/21 00:34:54;;;;;;;5.35;3.88;;;;;;;14.48;57.53;101319.41;5090619;28;20041;-80
2021/09/21 00:37:22;;;;;;;5.75;4.15;;;;;;;14.44;57.35;101322.00;5083827;28;20036;-80
2021/09/21 00:39:51;;;;;;;5.13;4.07;;;;;;;14.40;57.69;101326.59;5083843;28;20056;-80
2021/09/21 00:42:28;;;;;;;5.75;3.72;;;;;;;14.37;58.18;101330.88;5084987;28;20067;-79
2021/09/21 00:44:57;;;;;;;6.72;4.40;;;;;;;14.36;58.14;101326.44;5066489;28;20051;-80
2021/09/21 00:47:28;;;;;;;;;;;;;;;14.28;58.52;101321.59;5076063;28;20059;-79
2021/09/21 00:49:56;;;;;;;6.80;4.63;;;;;;;14.28;57.58;101326.34;5090239;28;19927;-79
2021/09/21 00:52:27;;;;;;;7.43;4.18;;;;;;;14.25;57.65;101333.41;5092404;28;20063;-79
2021/09/21 00:54:55;;;;;;;6.85;5.00;;;;;;;14.24;57.51;101333.72;5092332;28;20054;-79
2021/09/21 00:57:28;;;;;;;4.80;4.30;;;;;;;14.22;57.25;101331.25;5089783;28;20048;-79
2021/09/21 00:59:55;;;;;;;5.45;4.40;;;;;;;14.21;57.20;101332.41;5080859;28;20057;-79
2021/09/21 01:02:25;;;;;;;6.32;4.45;;;;;;;14.19;57.21;101329.94;5079518;28;20053;-78
2021/09/21 01:04:53;;;;;;;5.32;4.32;;;;;;;14.12;57.84;101329.53;5081718;28;20473;-79
2021/09/21 01:07:20;;;;;;;5.50;4.38;;;;;;;14.02;58.52;101333.41;5080099;28;20071;-78
2021/09/21 01:09:47;;;;;;;7.22;4.80;;;;;;;13.93;59.04;101328.88;5080000;28;20063;-78
2021/09/21 01:12:15;;;;;;;9.38;4.70;;;;;;;13.85;59.36;101333.25;5081136;28;21413;-78
2021/09/21 01:14:44;;;;;;;6.60;4.97;;;;;;;13.70;60.40;101336.41;5072364;28;20072;-79
2021/09/21 01:17:11;;;;;;;5.82;4.93;;;;;;;13.56;60.70;101336.44;5062646;28;20057;-79
2021/09/21 01:19:39;;;;;;;6.35;5.05;;;;;;;13.46;60.15;101342.25;5064161;28;20057;-78
2021/09/21 01:22:08;;;;;;;7.13;5.18;;;;;;;13.34;60.49;101340.81;5080123;28;20063;-78
2021/09/21 01:24:35;;;;;;;;;;;;;;;13.12;61.50;101335.06;5077519;28;20052;-78
2021/09/21 01:27:03;;;;;;;7.32;5.43;;;;;;;13.06;61.82;101339.13;5070772;28;19951;-78
2021/09/21 01:29:31;;;;;;;8.98;5.47;;;;;;;12.96;61.93;101340.97;5079545;28;20059;-78
2021/09/21 01:31:59;;;;;;;5.90;5.03;;;;;;;12.85;62.67;101335.88;5079412;28;20057;-78
2021/09/21 01:34:26;;;;;;;9.23;5.05;;;;;;;12.76;62.84;101327.38;5075867;28;20056;-79
2021/09/21 01:36:54;;;;;;;8.70;5.43;;;;;;;12.65;63.19;101331.53;5079740;28;20065;-78
2021/09/21 01:39:24;;;;;;;7.03;5.57;;;;;;;12.52;63.98;101336.75;5079711;28;20064;-79
2021/09/21 01:41:52;;;;;;;8.40;5.40;;;;;;;12.33;64.14;101331.22;5079755;28;21832;-79
2021/09/21 01:44:20;;;;;;;6.70;5.72;;;;;;;12.23;64.78;101344.53;5070728;28;20067;-79
2021/09/21 01:46:47;;;;;;;9.57;6.30;;;;;;;12.16;65.12;101339.34;5060846;28;20048;-78
2021/09/21 01:49:16;;;;;;;7.70;5.53;;;;;;;12.01;65.72;101339.56;5061033;28;20068;-78
2021/09/21 01:51:51;;;;;;;6.75;5.75;;;;;;;11.99;65.39;101334.31;5077849;28;20381;-79
2021/09/21 01:54:23;;;;;;;7.97;5.90;;;;;;;11.94;65.28;101342.75;5078586;28;20048;-79
2021/09/21 01:59:36;;;;;;;7.75;5.38;;;;;;;11.77;65.42;101343.22;5083358;28;20068;-79
2021/09/21 02:02:03;;;;;;;7.68;5.60;;;;;;;11.71;65.08;101338.84;5067368;28;20045;-79
2021/09/21 02:04:31;;;;;;;8.43;5.82;;;;;;;11.63;65.59;101334.75;5077676;28;20059;-79
2021/09/21 02:20:42;;;;;;;8.13;6.45;;;;;;;10.96;68.52;101360.72;5056058;28;20053;-78
2021/09/21 02:24:04;;;;;;;7.80;6.22;;;;;;;11.00;68.32;101358.13;5084300;28;20059;-79
2021/09/21 02:30:39;;;;;;;8.00;6.50;;;;;;;10.93;68.08;101355.72;5069859;28;20061;-79
2021/09/21 02:40:29;;;;;;;;;;;;;;;;;;;;;
2021/09/21 02:43:38;;;;;;;7.38;6.20;;;;;;;10.67;67.85;101359.91;5063805;28;20057;-79
2021/09/21 02:46:38;;;;;;;11.30;6.40;;;;;;;10.55;67.98;101341.59;5058318;28;20043;-79
2021/09/21 02:49:08;;;;;;;8.98;5.78;;;;;;;10.42;68.22;101345.06;5037615;28;20571;-79
2021/09/21 02:51:35;;;;;;;9.30;6.47;;;;;;;10.37;68.37;101347.88;5038205;28;20053;-79
2021/09/21 02:54:03;;;;;;;10.07;6.78;;;;;;;10.29;68.74;101360.50;5037924;28;20060;-78
2021/09/21 02:56:30;;;;;;;9.48;6.45;;;;;;;10.23;69.13;101355.22;5037996;28;20053;-79
2021/09/21 02:58:57;;;;;;;9.75;7.38;;;;;;;10.16;69.79;101352.75;5044963;28;20054;-78
2021/09/21 03:01:25;;;;;;;9.88;6.85;;;;;;;10.11;69.46;101356.41;5038886;28;20064;-78
2021/09/21 03:03:55;;;;;;;7.93;6.65;;;;;;;10.11;69.63;101347.25;5047488;28;20045;-79
2021/09/21 03:06:26;;;;;;;14.00;7.32;;;;;;;10.09;69.60;101358.66;5037551;28;20045;-79
2021/09/21 03:09:00;;;;;;;8.65;6.57;;;;;;;10.02;69.60;101363.72;5037022;28;20060;-78
2021/09/21 03:11:30;;;;;;;9.02;6.93;;;;;;;9.95;69.57;101363.19;5107790;28;20058;-79
2021/09/21 03:17:17;;;;;;;11.68;7.30;;;;;;;9.87;69.89;101361.03;5119867;28;19926;-79
2021/09/21 03:19:44;;;;;;;10.75;7.65;;;;;;;9.87;69.94;101363.81;5100399;28;20044;-78
2021/09/21 03:22:13;;;;;;;12.05;7.00;;;;;;;9.81;69.84;101365.00;5117362;28;20063;-78
2021/09/21 03:24:40;;;;;;;8.45;6.85;;;;;;;9.78;70.21;101357.19;5118143;28;20412;-78
2021/09/21 03:27:08;;;;;;;9.10;7.00;;;;;;;9.75;70.01;101356.66;5118273;28;20358;-78
2021/09/21 03:29:35;;;;;;;10.95;8.10;;;;;;;9.74;70.03;101366.13;5119654;28;20051;-78
2021/09/21 03:32:03;;;;;;;9.73;6.82;;;;;;;9.72;70.63;101361.94;5115126;28;20058;-78
2021/09/21 03:34:32;;;;;;;10.63;7.30;;;;;;;9.70;70.18;101376.16;5117994;28;20059;-78
2021/09/21 03:36:59;;;;;;;9.63;7.60;;;;;;;9.66;70.55;101383.41;5104194;28;20427;-78
2021/09/21 03:39:28;;;;;;;10.55;7.65;;;;;;;9.67;70.53;101382.28;5117362;28;20047;-78
2021/09/21 03:42:33;;;;;;;8.95;6.68;;;;;;;9.60;70.88;101381.78;5117854;28;20051;-78
2021/09/21 03:52:09;;;;;;;7.70;6.80;;;;;;;9.54;70.32;101382.91;5022573;28;20058;-80
2021/09/21 03:55:24;;;;;;;9.60;7.43;;;;;;;9.48;70.14;101397.97;5009987;28;20060;-78
2021/09/21 04:08:10;;;;;;;9.98;6.88;;;;;;;9.20;70.69;101438.34;5025096;28;20054;-79
2021/09/21 04:18:21;;;;;;;9.25;6.65;;;;;;;9.13;70.58;101450.63;5119109;28;20055;-80
2021/09/21 04:35:02;;;;;;;9.60;7.18;;;;;;;8.98;71.42;101452.56;5109898;28;20059;-79
2021/09/21 04:41:44;;;;;;;10.15;7.82;;;;;;;8.92;71.15;101463.72;5133752;28;20059;-80
2021/09/21 04:44:35;;;;;;;10.68;7.15;;;;;;;8.91;71.56;101473.13;5112312;28;20056;-80
2021/09/21 04:50:55;;;;;;;10.88;7.60;;;;;;;8.98;71.86;101497.03;5105716;28;20056;-80
2021/09/21 04:54:05;;;;;;;10.00;6.95;;;;;;;9.00;71.57;101505.94;5126905;28;20036;-80
2021/09/21 05:00:18;;;;;;;;;;;;;;;8.99;70.77;101504.25;5134058;28;20056;-80
2021/09/21 05:13:59;;;;;;;8.82;6.97;;;;;;;8.92;70.85;101499.81;5116181;28;20055;-79
2021/09/21 05:27:14;;;;;;;10.18;6.78;;;;;;;8.90;71.20;101517.88;5133665;27;20038;-80
2021/09/21 05:30:26;;;;;;;9.70;6.50;;;;;;;8.87;71.06;101516.47;5130386;27;20047;-79
2021/09/21 05:40:20;;;;;;;;;;;;;;;;;;;;;
2021/09/21 05:43:11;;;;;;;8.52;6.57;;;;;;;8.85;70.53;101507.59;5002592;28;20061;-79
2021/09/21 05:51:52;;;;;;;8.25;6.63;;;;;;;9.02;70.59;101517.59;4996057;28;20174;-79
2021/09/21 05:54:19;;;;;;;7.80;6.45;;;;;;;9.10;70.07;101528.16;4996494;28;20050;-79
2021/09/21 05:56:47;;;;;;;8.88;7.20;;;;;;;9.16;70.50;101537.34;5043275;28;20052;-78
2021/09/21 05:59:14;;;;;;;9.32;7.65;;;;;;;9.15;70.23;101536.47;5092723;28;20056;-78
2021/09/21 06:01:42;;;;;;;12.13;7.57;;;;;;;9.26;70.33;101538.16;5091450;28;20052;-79
2021/09/21 06:04:11;;;;;;;10.57;7.97;;;;;;;9.34;70.14;101545.94;5073575;28;20048;-79
2021/09/21 06:06:38;;;;;;;13.03;8.37;;;;;;;9.45;69.88;101557.03;5092045;28;20071;-79
2021/09/21 06:09:06;;;;;;;9.80;7.45;;;;;;;9.52;69.69;101552.84;5091021;28;20542;-79
2021/09/21 06:11:40;;;;;;;10.10;7.30;;;;;;;9.66;69.12;101541.13;5104277;28;20052;-83
2021/09/21 06:14:07;;;;;;;9.43;7.68;;;;;;;9.73;68.69;101550.84;5098109;28;20063;-84
2021/09/21 06:16:35;;;;;;;11.00;7.25;;;;;;;9.84;69.61;101548.88;5099497;28;20055;-85
2021/09/21 06:19:02;;;;;;;9.23;6.32;;;;;;;9.64;70.30;101552.56;5106941;28;20063;-85
2021/09/21 06:21:31;;;;;;;10.90;7.03;;;;;;;10.16;68.31;101551.28;5100689;28;20094;-79
2021/09/21 06:23:59;;;;;;;11.02;7.10;;;;;;;10.42;66.83;101553.13;5093124;28;20489;-79
2021/09/21 06:26:26;;;;;;;7.93;6.00;;;;;;;10.71;66.24;101561.59;5097909;28;20048;-79
2021/09/21 06:28:54;;;;;;;12.80;6.72;;;;;;;10.84;65.88;101566.53;5097071;28;20393;-81
2021/09/21 06:31:21;;;;;;;7.97;6.13;;;;;;;10.85;65.59;101562.59;5093053;28;20052;-77
2021/09/21 06:33:48;;;;;;;8.02;6.53;;;;;;;10.88;65.57;101548.09;5093033;28;20092;-78
2021/09/21 06:36:16;;;;;;;10.25;7.50;;;;;;;10.93;65.94;101556.41;5091579;28;20051;-78
2021/09/21 06:38:45;;;;;;;10.40;6.78;;;;;;;11.10;65.67;101566.31;5108621;28;20059;-79
2021/09/21 06:41:13;;;;;;;9.07;6.85;;;;;;;11.39;65.32;101560.78;5112894;28;20047;-79
2021/09/21 06:43:40;;;;;;;9.05;6.35;;;;;;;12.22;63.28;101563.53;5112230;28;20070;-78
2021/09/21 06:46:08;;;;;;;7.03;5.85;;;;;;;13.06;59.96;101569.31;5113072;28;20039;-78
2021/09/21 06:48:39;;;;;;;10.07;6.38;;;;;;;14.02;57.78;101568.72;5119537;28;20068;-82
2021/09/21 06:52:06;;;;;;;7.40;5.88;;;;;;;15.16;54.21;101572.66;5118143;28;20055;-78
2021/09/21 07:04:51;;;;;;;6.68;5.60;;;;;;;16.61;49.79;101560.78;5041461;28;20120;-79
2021/09/21 07:11:19;;;;;;;;;;;;;;;;;;;;;
2021/09/21 07:14:53;;;;;;;6.70;5.07;;;;;;;20.33;41.56;101570.50;5101332;28;20059;-77
2021/09/21 07:41:26;;;;;;;7.57;5.32;;;;;;;27.05;28.67;101586.97;5011727;28;20046;-80
2021/09/21 07:43:53;;;;;;;5.63;4.75;;;;;;;27.66;27.61;101582.31;5076584;28;20052;-79
2021/09/21 07:46:20;;;;;;;5.88;4.90;;;;;;;28.31;27.08;101588.94;5111928;28;20063;-80
2021/09/21 07:48:48;;;;;;;7.63;5.70;;;;;;;28.57;26.76;101581.16;5121866;28;20048;-81
2021/09/21 07:51:16;;;;;;;5.60;5.10;;;;;;;29.19;25.98;101576.91;5132505;28;20043;-81
2021/09/21 07:53:44;;;;;;;6.18;5.15;;;;;;;29.53;25.35;101588.59;5119445;28;20046;-82
2021/09/21 07:56:11;;;;;;;7.43;5.30;;;;;;;30.14;24.84;101598.88;5128384;28;20060;-81
2021/09/21 07:58:40;;;;;;;6.90;5.43;;;;;;;30.66;23.94;101592.25;5115754;28;20047;-79
2021/09/21 08:01:08;;;;;;;5.15;4.65;;;;;;;31.22;23.23;101592.06;5130627;28;20055;-80
2021/09/21 08:03:38;;;;;;;6.73;4.50;;;;;;;31.66;22.13;101593.94;5130001;28;20051;-80
2021/09/21 08:06:06;;;;;;;5.63;4.57;;;;;;;32.16;21.80;101586.59;5125085;28;20523;-80
2021/09/21 08:08:34;;;;;;;6.13;4.68;;;;;;;32.68;21.28;101583.22;5123098;28;20056;-80
2021/09/21 08:11:02;;;;;;;5.47;4.20;;;;;;;32.66;21.33;101597.28;5127473;28;20047;-81
2021/09/21 08:13:30;;;;;;;;;;;;;;;31.97;21.57;101602.53;5127409;28;20047;-81
2021/09/21 08:30:29;;;;;;;6.20;4.72;;;;;;;33.26;20.34;101622.50;5004655;28;20041;-80
2021/09/21 08:34:04;;;;;;;5.40;4.47;;;;;;;34.14;19.54;101620.97;5076843;28;20043;-80
2021/09/21 08:43:51;;;;;;;5.38;4.40;;;;;;;35.54;18.19;101632.41;5027614;28;20053;-79
2021/09/21 08:57:07;;;;;;;6.70;4.68;;;;;;;34.89;17.89;101635.56;5007950;28;20053;-83
2021/09/21 09:00:32;;;;;;;6.50;4.70;;;;;;;34.61;18.03;101634.22;5066120;28;20052;-83
2021/09/21 09:03:07;;;;;;;5.50;4.50;;;;;;;34.92;18.14;101623.88;5058578;22;20049;-59
2021/09/21 09:05:48;;;;;;;5.25;4.10;;;;;;;35.10;18.00;101619.66;5073898;28;20056;-59
2021/09/21 09:08:28;;;;;;;5.57;3.80;;;;;;;35.07;17.26;101627.19;5082029;28;20048;-61
2021/09/21 09:11:10;;;;;;;5.70;4.35;;;;;;;34.91;18.57;101630.13;5053741;28;20419;-61
2021/09/21 09:13:39;;;;;;;5.22;4.72;;;;;;;34.93;18.13;101624.69;5071028;28;20399;-61
2021/09/21 09:16:11;;;;;;;7.03;4.38;;;;;;;34.97;18.65;101622.50;5073005;28;20483;-61
2021/09/21 09:18:40;;;;;;;5.60;3.80;;;;;;;35.08;17.70;101623.00;5066599;28;20102;-61
2021/09/21 09:21:08;;;;;;;6.90;3.90;;;;;;;34.77;17.94;101625.53;5066557;28;20052;-61
2021/09/21 09:23:36;;;;;;;4.27;3.87;;;;;;;34.76;17.79;101630.53;5078855;28;20486;-61
2021/09/21 09:26:03;;;;;;;4.85;3.50;;;;;;;34.41;17.77;101629.34;5071259;28;20497;-61
2021/09/21 09:28:31;;;;;;;6.35;3.25;;;;;;;34.11;18.34;101625.53;5071590;28;20478;-61
2021/09/21 09:31:02;;;;;;;17.02;15.43;;;;;;;34.31;16.88;101621.75;5073409;28;20082;-60
2021/09/21 09:33:34;;;;;;;3.92;3.35;;;;;;;34.86;17.25;101625.72;5072631;28;20060;-61
2021/09/21 09:36:01;;;;;;;5.10;3.67;;;;;;;35.13;16.92;101622.47;5072980;28;20410;-60
2021/09/21 09:38:29;;;;;;;5.38;4.22;;;;;;;35.57;17.03;101622.81;5070951;28;20052;-61
2021/09/21 09:40:58;;;;;;;3.83;3.22;;;;;;;36.15;16.01;101618.91;5072348;28;20486;-61
2021/09/21 09:43:27;;;;;;;4.93;3.40;;;;;;;37.04;15.50;101617.03;5073509;28;20409;-61
2021/09/21 09:45:56;;;;;;;5.63;3.53;;;;;;;37.96;15.04;101623.44;5072884;28;20473;-61
2021/09/21 09:48:26;;;;;;;4.07;2.90;;;;;;;38.40;13.49;101619.53;5073299;28;20056;-61
2021/09/21 09:50:56;;;;;;;3.70;2.75;;;;;;;38.69;13.41;101630.78;5071628;28;20052;-61
2021/09/21 09:53:27;;;;;;;4.72;3.17;;;;;;;39.10;12.78;101627.72;5072407;28;20533;-62
2021/09/21 09:55:57;;;;;;;4.30;3.47;;;;;;;39.55;12.92;101628.97;5071886;28;20059;-59
2021/09/21 09:58:25;;;;;;;4.63;3.30;;;;;;;39.74;13.23;101633.44;5070703;28;20454;-61
2021/09/21 10:00:54;;;;;;;4.65;3.88;;;;;;;40.24;13.15;101638.91;5071951;28;20049;-62
2021/09/21 10:03:22;;;;;;;4.20;3.80;;;;;;;39.84;12.55;101636.28;5079051;28;20059;-59
2021/09/21 10:05:51;;;;;;;4.63;3.35;;;;;;;40.02;13.32;101647.13;5092325;28;20056;-59
2021/09/21 10:08:18;;;;;;;4.43;3.28;;;;;;;40.25;12.31;101648.47;5092892;28;20060;-59
2021/09/21 10:10:47;;;;;;;4.75;3.83;;;;;;;40.20;12.08;101641.19;5092114;28;20044;-59
2021/09/21 10:13:15;;;;;;;;;;;;;;;39.63;12.38;101638.16;5091261;28;20052;-59
2021/09/21 10:15:45;;;;;;;5.30;3.35;;;;;;;40.20;12.98;101644.13;5092072;28;19928;-59
2021/09/21 10:18:16;;;;;;;4.45;3.38;;;;;;;40.69;12.18;101637.00;5092420;28;20052;-60
2021/09/21 10:20:45;;;;;;;5.65;3.70;;;;;;;40.58;11.81;101642.59;5092798;28;20063;-59
2021/09/21 10:23:16;;;;;;;4.28;3.75;;;;;;;41.11;11.66;101643.97;5092540;28;20044;-59
2021/09/21 10:25:44;;;;;;;5.05;3.72;;;;;;;41.10;12.97;101630.69;5090750;28;20083;-59
2021/09/21 10:28:13;;;;;;;5.43;3.38;;;;;;;41.66;11.80;101630.94;5086820;28;20130;-59
2021/09/21 10:30:41;;;;;;;5.05;3.80;;;;;;;42.03;10.48;101634.22;5092474;28;20044;-59
2021/09/21 10:33:18;;;;;;;4.55;3.28;;;;;;;42.24;10.77;101623.34;5092420;28;20052;-59
2021/09/21 10:35:49;;;;;;;4.43;3.60;;;;;;;42.12;11.31;101622.38;5092760;28;20052;-60
2021/09/21 10:38:19;;;;;;;3.95;3.30;;;;;;;42.22;10.70;101628.13;5091343;28;20103;-59
2021/09/21 10:40:49;;;;;;;3.30;3.00;;;;;;;41.85;10.20;101623.53;5091250;28;20394;-60
2021/09/21 10:43:25;;;;;;;3.58;3.13;;;;;;;41.80;10.43;101632.22;5091976;28;20497;-60
2021/09/21 10:45:54;;;;;;;4.10;3.53;;;;;;;41.71;11.19;101628.09;5091287;28;20421;-60
2021/09/21 10:48:22;;;;;;;3.83;3.25;;;;;;;41.49;11.28;101637.25;5090844;28;20056;-60
2021/09/21 10:50:58;;;;;;;3.85;3.35;;;;;;;41.94;10.23;101623.41;5091424;28;20059;-59
2021/09/21 10:53:28;;;;;;;3.80;3.47;;;;;;;41.37;11.15;101633.34;5091245;28;20059;-60
2021/09/21 10:56:01;;;;;;;3.33;2.80;;;;;;;41.20;10.16;101625.56;5091380;28;20506;-59
2021/09/21 10:58:29;;;;;;;3.10;2.80;;;;;;;41.49;10.38;101622.63;5091456;28;20074;-60
2021/09/21 11:00:57;;;;;;;3.55;3.05;;;;;;;41.32;10.58;101633.22;5091227;28;20501;-59
2021/09/21 11:03:25;;;;;;;;;;;;;;;41.25;11.58;101624.88;5091165;28;20078;-60
2021/09/21 11:05:54;;;;;;;3.80;2.95;;;;;;;41.58;10.60;101628.44;5091101;28;20413;-60
2021/09/21 11:08:29;;;;;;;4.85;3.20;;;;;;;41.56;10.46;101622.25;5090128;28;20490;-60
2021/09/21 11:11:00;;;;;;;3.35;2.55;;;;;;;41.37;9.92;101630.41;5090533;28;20056;-60
2021/09/21 11:13:32;;;;;;;2.95;2.10;;;;;;;41.50;9.64;101623.47;5091138;28;20060;-59
2021/09/21 11:16:00;;;;;;;3.17;2.60;;;;;;;40.91;10.92;101632.94;5090974;28;20043;-59
2021/09/21 11:18:28;;;;;;;2.45;2.25;;;;;;;40.04;11.23;101627.00;5090667;28;20052;-60
2021/09/21 11:20:58;;;;;;;2.80;2.47;;;;;;;39.54;12.07;101634.00;5090985;28;20052;-60
2021/09/21 11:23:29;;;;;;;3.78;2.78;;;;;;;38.14;12.27;101624.84;5089679;28;20051;-60
2021/09/21 11:26:00;;;;;;;2.75;2.25;;;;;;;38.31;12.50;101616.63;5071083;28;20064;-60
2021/09/21 11:28:30;;;;;;;3.20;2.20;;;;;;;38.21;13.12;101624.53;5082003;28;20052;-60
2021/09/21 11:30:58;;;;;;;3.15;2.30;;;;;;;38.42;12.65;101628.59;5088673;28;20494;-60
2021/09/21 11:33:28;;;;;;;2.92;2.42;;;;;;;38.07;12.31;101628.84;5088004;28;20062;-60
2021/09/21 11:35:59;;;;;;;2.72;2.20;;;;;;;38.14;12.12;101624.84;5089911;28;20063;-60
2021/09/21 11:38:34;;;;;;;2.72;2.15;;;;;;;37.31;12.75;101627.28;5089230;28;20052;-59
2021/09/21 11:41:02;;;;;;;2.38;2.10;;;;;;;36.84;14.17;101622.38;5088884;28;20413;-59
2021/09/21 11:43:30;;;;;;;3.58;2.78;;;;;;;36.94;13.87;101627.78;5089906;28;20379;-60
2021/09/21 11:45:58;;;;;;;3.40;2.63;;;;;;;36.71;13.74;101631.94;5091582;28;20060;-60
2021/09/21 11:48:27;;;;;;;4.57;2.40;;;;;;;36.25;13.41;101628.56;5090578;28;20064;-60
2021/09/21 11:50:56;;;;;;;3.60;2.38;;;;;;;35.49;15.38;101624.31;5090393;28;20086;-60
2021/09/21 11:53:24;;;;;;;;;;;;;;;35.69;14.81;101623.31;5092388;28;20052;-59
2021/09/21 11:55:54;;;;;;;;;;;;;;;36.37;13.79;101627.72;5090020;28;20010;-59
2021/09/21 11:58:26;;;;;;;3.30;2.10;;;;;;;36.88;14.51;101623.06;5091752;28;19924;-59
2021/09/21 12:00:56;;;;;;;4.03;2.20;;;;;;;37.08;14.67;101620.63;5090801;28;20050;-60
2021/09/21 12:03:25;;;;;;;2.13;1.83;;;;;;;37.13;14.24;101616.34;5089903;28;20052;-60
2021/09/21 12:05:54;;;;;;;3.22;2.08;;;;;;;36.69;14.49;101627.91;5091301;28;20055;-60
2021/09/21 12:08:23;;;;;;;2.58;2.08;;;;;;;37.06;14.00;101622.38;5089867;28;20514;-60
2021/09/21 12:10:54;;;;;;;3.67;2.20;;;;;;;37.03;13.36;101620.44;5090085;28;20068;-60
2021/09/21 12:13:23;;;;;;;2.42;1.88;;;;;;;36.77;13.94;101615.56;5082632;28;20079;-61
2021/09/21 12:15:54;;;;;;;2.72;1.98;;;;;;;35.85;14.49;101611.63;5090951;28;20056;-60
2021/09/21 12:18:23;;;;;;;2.80;1.90;;;;;;;35.97;14.01;101619.50;5093453;28;20044;-61
2021/09/21 12:20:53;;;;;;;4.05;2.20;;;;;;;35.81;14.78;101616.72;5090456;28;20115;-61
2021/09/21 12:23:23;;;;;;;3.38;1.83;;;;;;;35.78;14.69;101617.63;5092534;28;20059;-60
2021/09/21 12:25:54;;;;;;;2.97;1.80;;;;;;;35.65;14.46;101619.72;5091845;28;20062;-60
2021/09/21 12:28:29;;;;;;;2.40;1.80;;;;;;;35.60;14.04;101612.38;5093421;28;20516;-61
2021/09/21 12:30:58;;;;;;;2.67;1.75;;;;;;;35.70;13.94;101613.31;5074699;28;20064;-61
2021/09/21 12:33:26;;;;;;;4.32;1.75;;;;;;;34.83;15.39;101612.13;5088234;28;20492;-61
2021/09/21 12:35:54;;;;;;;3.78;1.73;;;;;;;35.03;15.67;101614.88;5094370;28;20058;-60
2021/09/21 12:38:24;;;;;;;2.28;1.85;;;;;;;35.44;15.28;101618.25;5093857;28;20062;-60
2021/09/21 12:40:55;;;;;;;2.50;1.98;;;;;;;35.98;14.00;101615.31;5094763;28;20067;-61
2021/09/21 12:43:24;;;;;;;3.10;2.10;;;;;;;36.14;13.96;101605.72;5090145;28;20054;-63
2021/09/21 12:45:56;;;;;;;4.70;2.83;;;;;;;36.21;14.17;101610.44;5095361;28;20048;-61
2021/09/21 12:48:25;;;;;;;2.88;2.00;;;;;;;37.47;13.12;101605.91;5094449;28;20071;-61
2021/09/21 12:50:55;;;;;;;2.80;1.90;;;;;;;37.52;12.50;101602.38;5093842;28;20040;-60
2021/09/21 12:53:23;;;;;;;2.95;1.67;;;;;;;37.72;12.90;101596.22;5095558;28;20063;-60
2021/09/21 12:55:57;;;;;;;2.40;1.80;;;;;;;37.72;12.44;101596.22;5093266;28;20063;-61
2021/09/21 12:58:27;;;;;;;2.17;1.77;;;;;;;37.47;12.96;101600.09;5087003;28;20387;-60
2021/09/21 13:00:57;;;;;;;1.88;1.60;;;;;;;36.91;13.81;101590.16;5089725;28;20051;-60
2021/09/21 13:03:24;;;;;;;3.15;1.90;;;;;;;37.39;12.31;101593.75;5090565;28;20059;-60
2021/09/21 13:05:51;;;;;;;3.38;1.73;;;;;;;36.73;12.82;101588.75;5083512;28;20509;-60
2021/09/21 13:08:19;;;;;;;4.38;1.83;;;;;;;35.40;13.86;101597.28;5092474;28;20055;-59
2021/09/21 13:10:46;;;;;;;2.45;1.77;;;;;;;35.40;14.39;101595.19;5094228;28;20048;-60
2021/09/21 13:13:15;;;;;;;3.50;2.10;;;;;;;35.33;14.15;101581.72;5091393;28;20059;-60
2021/09/21 13:15:43;;;;;;;3.30;1.98;;;;;;;35.18;14.48;101586.34;5094336;28;20413;-60
2021/09/21 13:18:14;;;;;;;3.58;2.47;;;;;;;34.86;14.84;101595.94;5092439;28;20501;-60
2021/09/21 13:20:41;;;;;;;2.90;1.98;;;;;;;34.04;15.81;101584.41;5093699;28;20508;-60
2021/09/21 13:23:09;;;;;;;2.95;2.08;;;;;;;33.90;16.20;101588.50;5092059;28;20196;-60
2021/09/21 13:25:37;;;;;;;2.78;2.28;;;;;;;33.55;16.73;101588.84;5092856;28;20048;-60
2021/09/21 13:28:06;;;;;;;3.78;2.58;;;;;;;33.46;17.24;101584.94;5094392;28;20056;-60
2021/09/21 13:30:38;;;;;;;4.97;2.08;;;;;;;33.26;17.48;101582.88;5093382;28;20075;-60
2021/09/21 13:33:06;;;;;;;3.38;2.33;;;;;;;32.73;17.25;101576.13;5092209;28;20044;-60
2021/09/21 13:35:33;;;;;;;2.85;2.40;;;;;;;32.52;17.69;101581.00;5091603;28;20052;-61
2021/09/21 13:38:01;;;;;;;2.95;2.50;;;;;;;32.33;17.75;101578.91;5092206;28;20048;-61
2021/09/21 13:40:28;;;;;;;2.75;2.08;;;;;;;31.72;18.52;101566.28;5092641;28;20553;-60
2021/09/21 13:42:58;;;;;;;3.15;2.20;;;;;;;31.46;18.48;101579.44;5091920;28;20055;-61
2021/09/21 13:45:27;;;;;;;7.57;2.50;;;;;;;31.15;19.03;101576.50;5090219;28;20493;-60
2021/09/21 13:47:56;;;;;;;5.15;2.20;;;;;;;30.65;20.97;101579.94;5089056;28;20048;-60
2021/09/21 13:50:24;;;;;;;3.78;2.00;;;;;;;30.07;20.22;101578.81;5094445;28;20508;-60
2021/09/21 13:52:53;;;;;;;4.93;2.20;;;;;;;29.93;20.81;101579.75;5093722;28;20048;-60
2021/09/21 13:55:21;;;;;;;2.22;1.83;;;;;;;29.94;20.13;101579.34;5093204;28;20048;-60
2021/09/21 13:57:49;;;;;;;3.30;2.00;;;;;;;29.71;20.51;101573.34;5093583;28;20044;-59
2021/09/21 14:00:19;;;;;;;4.10;2.30;;;;;;;29.52;22.23;101571.78;5074503;28;20364;-60
2021/09/21 14:02:49;;;;;;;3.70;2.40;;;;;;;29.41;21.75;101568.19;5076826;28;20071;-60
2021/09/21 14:05:18;;;;;;;2.80;2.50;;;;;;;29.29;20.55;101576.03;5093731;28;20409;-60
2021/09/21 14:07:47;;;;;;;2.88;2.25;;;;;;;28.92;22.29;101577.38;5092972;28;20051;-60
2021/09/21 14:10:18;;;;;;;3.33;1.98;;;;;;;28.91;21.95;101574.91;5093742;28;20059;-60
2021/09/21 14:12:45;;;;;;;3.55;2.05;;;;;;;28.79;22.04;101572.47;5092368;28;20044;-60
2021/09/21 14:15:15;;;;;;;2.83;2.28;;;;;;;28.81;22.22;101564.28;5092869;28;20052;-60
2021/09/21 14:17:45;;;;;;;4.28;3.00;;;;;;;28.72;22.73;101568.41;5091373;28;20048;-60
2021/09/21 14:20:15;;;;;;;3.80;2.83;;;;;;;28.74;22.30;101570.88;5093681;28;20082;-59
2021/09/21 14:22:47;;;;;;;5.07;3.00;;;;;;;28.54;22.54;101573.38;5091047;28;20051;-59
2021/09/21 14:25:15;;;;;;;5.65;3.53;;;;;;;28.19;22.99;101575.00;5090044;28;20060;-59
2021/09/21 14:27:43;;;;;;;3.00;2.70;;;;;;;27.98;23.32;101580.75;5091967;28;20402;-60
2021/09/21 14:30:14;;;;;;;4.75;2.80;;;;;;;27.87;24.36;101581.56;5090755;28;20067;-60
2021/09/21 14:32:43;;;;;;;4.63;2.63;;;;;;;27.90;24.38;101577.03;5093015;28;20054;-60
2021/09/21 14:35:12;;;;;;;4.90;3.28;;;;;;;27.85;23.78;101581.09;5092402;28;20055;-60
2021/09/21 14:37:40;;;;;;;3.47;2.90;;;;;;;27.85;23.90;101578.25;5092107;28;20509;-60
2021/09/21 14:40:11;;;;;;;3.92;2.60;;;;;;;27.65;24.26;101576.97;5092170;28;20430;-60
2021/09/21 14:42:38;;;;;;;4.05;2.80;;;;;;;27.69;24.40;101577.81;5075757;28;20058;-58
2021/09/21 14:45:08;;;;;;;6.07;3.95;;;;;;;27.53;24.60;101579.00;5092299;28;20490;-60
2021/09/21 14:47:36;;;;;;;4.47;3.40;;;;;;;27.48;24.41;101579.38;5083665;28;20055;-60
2021/09/21 14:50:04;;;;;;;6.93;3.70;;;;;;;27.28;25.15;101589.56;5092209;28;20059;-60
2021/09/21 14:52:31;;;;;;;6.40;3.90;;;;;;;27.34;24.92;101587.94;5092120;28;20044;-60
2021/09/21 14:54:59;;;;;;;5.63;3.97;;;;;;;27.25;24.80;101585.44;5092356;28;20537;-60
2021/09/21 14:57:28;;;;;;;5.00;3.88;;;;;;;27.03;25.41;101592.28;5091580;28;20052;-59